Aviation Digital Data Service (ADDS)

Output produced by TAFs form (0628 UTC 27 March 2017)
found at http://www.aviationweather.gov/adds/tafs/
 
METAR text: ROIG 270600Z 04015KT 9999 FEW035 22/07 Q1023
Conditions at: ROIG (ISHIGAKIJIMA ISL, JP) observed 0600 UTC 27 March 2017
Temperature: 22.0°C (72°F)
Dewpoint: 7.0°C (45°F) [RH = 38%]
Pressure (altimeter): 30.21 inches Hg (1023.0 mb)
Winds: from the NE (40 degrees) at 17 MPH (15 knots; 7.8 m/s)
Visibility: 6 or more miles (10+ km)
Ceiling: at least 12,000 feet AGL
Clouds: few clouds at 3500 feet AGL
Weather: no significant weather observed at this time

Forecast for: ROIG (ISHIGAKIJIMA ISL, JP)
Text: TAF ROIG 270508Z 2706/2812 05014KT 9999 FEW035
Forecast period: 0600 UTC 27 March 2017 to 0600 UTC 28 March 2017
Forecast type: FROM: standard forecast or significant change
Winds: from the NE (50 degrees) at 16 MPH (14 knots; 7.3 m/s)
Visibility: 6 or more miles (10+ km)
Clouds: few clouds at 3500 feet AGL
Weather: no significant weather forecast for this period
Text: BECMG 2806/2809 11010KT
Forecast period: 0600 to 1200 UTC 28 March 2017
Forecast type: BECOMING: Conditions expected to become as follows by 0900 UTC 28 March 2017
Winds: from the ESE (110 degrees) at 12 MPH (10 knots; 5.2 m/s)
Visibility: 6 or more miles (10+ km)
Clouds: few clouds at 3500 feet AGL
Weather: no significant weather forecast for this period